Terminal Aerodrome Forecast
Issued by NWS Caribou, ME

Home | Current Version | Previous Version | Text Only | Print | Product List | Glossary On
Versions: 1 2 3 4 5 6 7 8 9 10 11 12 13 14 15 16 17 18 19 20 21 22 23 24 25 26 27 28 29 30 31 32 33
000
FTUS41 KCAR 242300 RRA
TAFCAR
TAF
KCAR 242350Z 2500/2524 36006KT 2SM -SN BR FEW008 OVC014
      TEMPO 2500/2502 BKN008
     FM250300 34006KT 5SM BR OVC006
     FM251300 33010KT P6SM BKN020
     FM251500 34008KT P6SM SCT035=

USA.gov is the U.S. government's official web portal to all federal, state and local government web resources and services.